Hlavní strana
METAR-TAF:

METAR-TAF

Letiště :

Emporia-Greensville Regional Airport

Emporia, Virginie, Spojené státy americké

zeměpisná šířka: 36-41-13N, zeměpisná délka: 077-28-58W, výška: 39 m

Aktuální stav počasí

Zpráva byla vytvořena před 17 minutami, v 22:55 UTC
Jihojihozápadní vítr 8 kt
Teplota 16°C
Vlhkost vzduchu 72%
Tlak 1000 hPa
Oblačno až skoro zataženo ve výšce 3800 ft
Oblačno až skoro zataženo ve výšce 4400 ft
Zataženo ve výšce 5000 ft

METAR: KEMV 302255Z AUTO 21008KT BKN038 BKN044 OVC050 16/11 A2952 RMK AO2 T01560110

Čas: 18:12 (23:12 UTC)


TAF: chybějící

Stav a předpovědi počasí z více než 4 000 letišť (zprávy METAR a TAF).

Červené a žluté tečky na mapě představují dostupné meteorologické stanice.

Když kurzor umístíte na tečku, zobrazí se název stanice.

Pak kliknutím zobrazíte stav a předpověď počasí.

Chcete-li změnit mapu, kliknutím na zelené tlačítko se znaménkem +mapu přiblížíte, kliknutím na zelené tlačítko se znaménkem – mapu oddálíte a kliknutím na zelené šipky přejdete na sousední mapy.


METAR-TAF: